Current Conditions
Scattered
Clouds



Pressure
1012.92 (hPa) - 29.91 (inHG)
Visibility

10.0 (km) - 6.2 (miles)
Temperature
17  °C
Temperature
14  °C
Dewpoint
83  %
 Humidity
Wind Speed
16  km/h
9  kts
10  mph
4.5  m/s
Wind Direction
N
45°
E
90°
135°
S
180°
225°
W
270°
315°
 270°

Due West
Airport Data
LFOA
Avord (BA 702) Air Base
Metar :LFOA 181800Z AUTO 27009KT 9999 SCT018/// OVC076/// ///CB 17/14 Q1013 TEMPO 2000 TSRA BKN008 BKN035CB
Sat 18th September 20:00 pm
Raw Metar Info
Raw METAR is the most common format in the world for the transmission of observational weather data. It is highly standardized through the International Civil Aviation Organization (ICAO), which allows it to be understood throughout most of the world.
API Info
Data Provided by
https://www.checkwx.com/weather/LFOA

Aviation Weather providing METAR, TAF, AIRMET, SIGMET and OUTLOOK Weather Reports
© Info
CSS/SVG/PHP scripts were developed by weather34.com for use in the weather34 template © 2015-2021

Guide Info provided by Metar-Wikipedia